Durango, CO (81301)

2:56 AM MDT on July 30, 2016 (GMT -0600)
Edgemont Highlands | | Change Station

Elev 7484 ft 37.31 °N, 107.79 °W | Updated 37 seconds ago

Clear
Clear
60.8 °F
Feels Like 60.8 °F
N
1.0
Wind Variable Wind from East
Gusts 4.0 mph

Today
High -- | Low -- °F
--% Chance of Precip.
Yesterday
High -- | Low -- °F
Precip. -- in
Pressure 29.92 in
Visibility 10.0 miles
Clouds Clear
Dew Point 42 °F
Humidity 50%
Rainfall Not available.
Snow Depth Not available.
6:14 AM 8:20 PM
Waning Crescent, 15% visible
METAR KDRO 300853Z AUTO 05006KT 10SM CLR 17/06 A3023 RMK AO2 SLP131 T01670061 57002
Pressure 29.92 in
Visibility 10.0 miles
Clouds Clear
Dew Point 42 °F
Humidity 50%
Rainfall Not available.
Snow Depth Not available.
6:14 AM 8:20 PM
Waning Crescent, 15% visible
METAR KDRO 300853Z AUTO 05006KT 10SM CLR 17/06 A3023 RMK AO2 SLP131 T01670061 57002

10-Day Weather Forecast

Almanac

Astronomy

Jul. 30, 2016 Rise Set
Actual Time
Civil Twilight
Nautical Twilight
Astronomical Twilight
Moon
Length of Visible Light
Length of Day
Tomorrow will be .
, % of the Moon is Illuminated

Today's Extremes

State Highs State Lows

Community

WunderPhotos

Upload Photos

1,928,508 photos uploaded!

WunderBlog® & News

Nearby

Air Quality

  Air Quality AQ Index Pollutant
Not available.

Snow Depth

Station Depth Elevation

Earthquake Activity

City Distance Mag. Time & Date
Minimum magnitude displayed is 2.5.

Coastal Water Temperatures

Place Temperature

Stations

Nearby Weather Stations

Station Location Temp. Windchill Dew Point Humidity Wind Precip. Elev Updated Type
                   

Watches & Warnings

There are currently no watches in effect.